createdAt,value
2018-09-06T00:01:43.757Z,8.17
2018-09-06T00:04:12.032Z,8.60
2018-09-06T00:06:40.370Z,8.53
2018-09-06T00:09:09.458Z,8.30
2018-09-06T00:11:37.785Z,7.93
2018-09-06T00:14:06.102Z,7.80
2018-09-06T00:16:34.424Z,8.33
2018-09-06T00:19:02.690Z,8.23
2018-09-06T00:21:30.990Z,8.03
2018-09-06T00:23:59.242Z,8.40
2018-09-06T00:26:27.551Z,8.73
2018-09-06T00:28:55.902Z,8.03
2018-09-06T00:31:24.137Z,8.00
2018-09-06T00:33:52.433Z,7.97
2018-09-06T00:36:20.691Z,8.03
2018-09-06T00:38:48.983Z,7.93
2018-09-06T00:41:17.250Z,8.70
2018-09-06T00:43:45.581Z,8.70
2018-09-06T00:46:13.877Z,7.83
2018-09-06T00:48:42.183Z,7.37
2018-09-06T00:51:10.449Z,7.60
2018-09-06T00:53:38.709Z,8.13
2018-09-06T00:56:07.014Z,8.53
2018-09-06T00:58:35.298Z,8.50
2018-09-06T01:01:03.637Z,8.40
2018-09-06T01:03:31.937Z,8.93
2018-09-06T01:06:00.220Z,8.60
2018-09-06T01:08:28.475Z,8.53
2018-09-06T01:10:56.812Z,8.53
2018-09-06T01:13:25.113Z,8.30
2018-09-06T01:15:53.391Z,8.37
2018-09-06T01:18:21.726Z,8.30
2018-09-06T01:20:50.064Z,7.53
2018-09-06T01:23:18.340Z,8.70
2018-09-06T01:25:48.920Z,7.60
2018-09-06T01:28:18.505Z,7.63
2018-09-06T01:30:46.781Z,7.30
2018-09-06T01:33:15.051Z,8.17
2018-09-06T01:35:47.515Z,7.87
2018-09-06T01:38:15.958Z,8.57
2018-09-06T01:40:44.288Z,7.50
2018-09-06T01:43:12.555Z,7.73
2018-09-06T01:45:40.807Z,7.70
2018-09-06T01:48:09.084Z,8.00
2018-09-06T01:50:37.341Z,8.67
2018-09-06T01:53:05.741Z,8.00
2018-09-06T01:55:34.035Z,7.57
2018-09-06T01:58:02.313Z,8.37
2018-09-06T02:00:30.712Z,8.93
2018-09-06T02:02:58.981Z,8.37
2018-09-06T02:05:35.500Z,8.30
2018-09-06T02:08:04.674Z,8.77
2018-09-06T02:10:33.040Z,8.27
2018-09-06T02:13:01.444Z,8.50
2018-09-06T02:15:29.771Z,8.87
2018-09-06T02:17:58.119Z,8.10
2018-09-06T02:20:26.431Z,8.93
2018-09-06T02:22:55.102Z,8.80
2018-09-06T02:25:23.404Z,8.30
2018-09-06T02:27:51.764Z,8.60
2018-09-06T02:30:20.038Z,8.90
2018-09-06T02:32:48.392Z,8.17
2018-09-06T02:35:16.706Z,8.60
2018-09-06T02:37:44.974Z,8.33
2018-09-06T02:40:18.661Z,8.70
2018-09-06T02:42:46.948Z,8.83
2018-09-06T02:45:15.283Z,8.70
2018-09-06T02:47:48.655Z,7.83
2018-09-06T02:50:22.133Z,8.73
2018-09-06T02:52:50.428Z,8.57
2018-09-06T02:55:18.754Z,8.70
2018-09-06T02:57:47.206Z,8.37
2018-09-06T03:00:15.459Z,8.67
2018-09-06T03:02:43.773Z,8.77
2018-09-06T03:05:12.082Z,8.83
2018-09-06T03:07:40.372Z,8.20
2018-09-06T03:10:08.758Z,9.10
2018-09-06T03:12:37.039Z,9.27
2018-09-06T03:15:05.304Z,9.07
2018-09-06T03:17:33.601Z,9.07
2018-09-06T03:20:01.880Z,8.93
2018-09-06T03:22:30.166Z,9.13
2018-09-06T03:24:58.437Z,8.60
2018-09-06T03:27:26.712Z,8.70
2018-09-06T03:29:54.971Z,8.63
2018-09-06T03:32:23.357Z,9.07
2018-09-06T03:34:51.644Z,9.07
2018-09-06T03:37:19.930Z,8.83
2018-09-06T03:39:48.222Z,8.50
2018-09-06T03:42:16.520Z,8.67
2018-09-06T03:44:44.767Z,8.90
2018-09-06T03:47:13.063Z,8.63
2018-09-06T03:49:41.298Z,8.50
2018-09-06T03:52:10.544Z,8.77
2018-09-06T03:54:38.781Z,8.33
2018-09-06T03:57:07.498Z,8.77
2018-09-06T03:59:35.969Z,8.37
2018-09-06T04:02:04.347Z,8.87
2018-09-06T04:04:32.602Z,8.70
2018-09-06T04:07:01.016Z,8.67
2018-09-06T04:09:29.253Z,8.70
2018-09-06T04:11:57.555Z,9.03
2018-09-06T04:14:25.874Z,8.33
2018-09-06T04:16:54.141Z,8.73
2018-09-06T04:19:22.454Z,8.30
2018-09-06T04:21:50.764Z,8.87
2018-09-06T04:24:19.204Z,8.97
2018-09-06T04:26:47.499Z,8.87
2018-09-06T04:29:15.870Z,8.03
2018-09-06T04:31:44.170Z,9.30
2018-09-06T04:34:12.583Z,9.00
2018-09-06T04:36:41.163Z,8.40
2018-09-06T04:39:11.218Z,8.00
2018-09-06T04:41:39.623Z,8.73
2018-09-06T04:44:07.976Z,8.53
2018-09-06T04:46:36.580Z,8.27
2018-09-06T04:49:05.096Z,8.40
2018-09-06T04:51:33.423Z,8.93
2018-09-06T04:54:01.774Z,8.90
2018-09-06T04:56:33.166Z,8.80
2018-09-06T04:59:01.500Z,8.50
2018-09-06T05:01:29.915Z,8.17
2018-09-06T05:03:58.370Z,8.57
2018-09-06T05:06:26.755Z,9.03
2018-09-06T05:08:55.036Z,9.13
2018-09-06T05:11:23.396Z,8.23
2018-09-06T05:13:51.882Z,8.80
2018-09-06T05:16:20.619Z,8.83
2018-09-06T05:18:48.992Z,9.07
2018-09-06T05:21:18.345Z,9.00
2018-09-06T05:23:47.577Z,9.63
2018-09-06T05:26:15.936Z,8.73
2018-09-06T05:28:44.255Z,8.50
2018-09-06T05:31:12.567Z,8.33
2018-09-06T05:33:40.967Z,8.43
2018-09-06T05:36:09.451Z,9.07
2018-09-06T05:38:38.003Z,8.97
2018-09-06T05:41:06.745Z,8.83
2018-09-06T05:43:35.072Z,9.00
2018-09-06T05:46:03.422Z,8.30
2018-09-06T05:48:31.771Z,8.67
2018-09-06T05:51:00.068Z,9.37
2018-09-06T05:53:28.437Z,8.83
2018-09-06T05:55:56.827Z,9.80
2018-09-06T05:58:25.266Z,9.30
2018-09-06T06:00:53.634Z,9.47
2018-09-06T06:03:22.127Z,8.47
2018-09-06T06:05:50.437Z,9.67
2018-09-06T06:08:30.082Z,9.97
2018-09-06T06:10:58.427Z,8.60
2018-09-06T06:13:26.824Z,9.30
2018-09-06T06:15:55.328Z,8.87
2018-09-06T06:18:23.617Z,9.60
2018-09-06T06:20:52.110Z,8.87
2018-09-06T06:23:20.429Z,9.27
2018-09-06T06:25:48.840Z,8.90
2018-09-06T06:28:17.213Z,9.00
2018-09-06T06:30:45.530Z,9.00
2018-09-06T06:33:14.027Z,8.77
2018-09-06T06:35:42.331Z,8.63
2018-09-06T06:38:10.760Z,9.37
2018-09-06T06:40:39.088Z,8.90
2018-09-06T06:43:08.262Z,9.10
2018-09-06T06:45:37.009Z,9.07
2018-09-06T06:48:05.529Z,9.03
2018-09-06T06:50:33.912Z,8.93
2018-09-06T06:53:02.323Z,8.43
2018-09-06T06:55:30.789Z,8.40
2018-09-06T06:57:59.099Z,7.80
2018-09-06T07:00:27.434Z,8.43
2018-09-06T07:02:55.738Z,8.40
2018-09-06T07:05:24.063Z,8.13
2018-09-06T07:07:52.362Z,8.33
2018-09-06T07:10:20.694Z,8.03
2018-09-06T07:12:48.982Z,8.30
2018-09-06T07:15:17.316Z,8.30
2018-09-06T07:17:45.620Z,8.90
2018-09-06T07:20:13.921Z,8.57
2018-09-06T07:22:42.293Z,7.70
2018-09-06T07:25:10.651Z,8.40
2018-09-06T07:27:38.932Z,8.60
2018-09-06T07:30:07.356Z,8.70
2018-09-06T07:32:35.822Z,8.57
2018-09-06T07:35:04.397Z,8.53
2018-09-06T07:37:33.788Z,9.03
2018-09-06T07:40:02.233Z,8.53
2018-09-06T07:42:30.522Z,8.47
2018-09-06T07:44:58.888Z,8.30
2018-09-06T07:47:27.242Z,8.67
2018-09-06T07:49:55.628Z,8.60
2018-09-06T07:52:23.965Z,8.28
2018-09-06T07:54:52.575Z,9.38
2018-09-06T07:57:20.876Z,9.03
2018-09-06T07:59:49.394Z,8.45
2018-09-06T08:02:17.715Z,8.48
2018-09-06T08:04:46.043Z,9.00
2018-09-06T08:07:14.363Z,8.53
2018-09-06T08:09:42.655Z,8.10
2018-09-06T08:12:10.977Z,8.73
2018-09-06T08:14:39.314Z,9.13
2018-09-06T08:17:07.927Z,9.23
2018-09-06T08:19:36.379Z,8.98
2018-09-06T08:22:04.702Z,8.85
2018-09-06T08:24:33.023Z,9.58
2018-09-06T08:27:01.325Z,9.33
2018-09-06T08:29:29.650Z,9.20
2018-09-06T08:31:57.935Z,9.60
2018-09-06T08:34:26.239Z,9.38
2018-09-06T08:36:54.607Z,9.10
2018-09-06T08:39:22.883Z,9.18
2018-09-06T08:41:51.251Z,8.68
2018-09-06T08:44:19.617Z,8.95
2018-09-06T08:46:48.118Z,8.68
2018-09-06T08:49:16.407Z,9.73
2018-09-06T08:51:44.774Z,9.28
2018-09-06T08:54:13.053Z,9.48
2018-09-06T08:56:41.389Z,9.40
2018-09-06T08:59:09.786Z,9.40
2018-09-06T09:01:38.458Z,9.28
2018-09-06T09:04:07.370Z,9.75
2018-09-06T09:06:35.905Z,9.48
2018-09-06T09:09:05.785Z,9.08
2018-09-06T09:11:34.262Z,9.63
2018-09-06T09:14:02.535Z,9.58
2018-09-06T09:16:30.867Z,9.70
2018-09-06T09:18:59.180Z,9.85
2018-09-06T09:21:27.550Z,9.90
2018-09-06T09:23:55.825Z,9.43
2018-09-06T09:26:24.150Z,9.70
2018-09-06T09:28:52.466Z,10.20
2018-09-06T09:31:20.780Z,10.20
2018-09-06T09:33:49.257Z,9.68
2018-09-06T09:36:17.588Z,9.28
2018-09-06T09:38:45.905Z,10.43
2018-09-06T09:41:14.294Z,9.88
2018-09-06T09:43:42.930Z,10.93
2018-09-06T09:48:39.119Z,11.03
2018-09-06T09:51:07.441Z,11.25
2018-09-06T09:53:35.729Z,11.57
2018-09-06T09:56:04.576Z,11.80
2018-09-06T09:58:32.936Z,11.10
2018-09-06T10:01:01.438Z,11.40
2018-09-06T10:03:35.040Z,10.68
2018-09-06T10:06:08.806Z,11.43
2018-09-06T10:08:42.592Z,11.53
2018-09-06T10:11:11.295Z,12.63
2018-09-06T10:13:39.618Z,11.63
2018-09-06T10:16:08.173Z,12.28
2018-09-06T10:18:36.500Z,12.85
2018-09-06T10:21:04.971Z,11.20
2018-09-06T10:23:33.403Z,12.28
2018-09-06T10:26:01.745Z,14.70
2018-09-06T10:28:30.103Z,13.83
2018-09-06T10:30:58.483Z,14.50
2018-09-06T10:33:26.837Z,14.53
2018-09-06T10:35:55.245Z,14.73
2018-09-06T10:38:23.595Z,14.15
2018-09-06T10:40:51.931Z,15.05
2018-09-06T10:43:20.265Z,15.98
2018-09-06T10:45:48.558Z,16.30
2018-09-06T10:48:17.178Z,15.48
2018-09-06T10:50:45.587Z,15.93
2018-09-06T10:53:14.263Z,16.95
2018-09-06T10:55:42.570Z,17.75
2018-09-06T10:58:10.929Z,16.45
2018-09-06T11:00:39.303Z,18.25
2018-09-06T11:03:07.851Z,17.65
2018-09-06T11:05:36.180Z,16.10
2018-09-06T11:08:04.592Z,15.95
2018-09-06T11:10:32.845Z,16.97
2018-09-06T11:13:01.159Z,15.93
2018-09-06T11:15:29.869Z,16.55
2018-09-06T11:17:58.459Z,16.90
2018-09-06T11:20:26.744Z,15.45
2018-09-06T11:22:55.061Z,16.55
2018-09-06T11:25:23.306Z,17.17
2018-09-06T11:27:53.305Z,17.32
2018-09-06T11:30:23.788Z,18.40
2018-09-06T11:32:52.235Z,17.90
2018-09-06T11:35:20.577Z,17.23
2018-09-06T11:37:49.071Z,15.88
2018-09-06T11:40:17.401Z,16.87
2018-09-06T11:42:45.724Z,16.42
2018-09-06T11:45:14.014Z,16.45
2018-09-06T11:47:42.332Z,16.77
2018-09-06T11:50:10.636Z,16.32
2018-09-06T11:52:38.930Z,16.85
2018-09-06T11:55:07.290Z,16.17
2018-09-06T11:57:35.584Z,15.80
2018-09-06T12:00:04.017Z,16.10
2018-09-06T12:02:32.320Z,16.97
2018-09-06T12:05:00.670Z,15.88
2018-09-06T12:07:28.980Z,16.90
2018-09-06T12:09:57.385Z,16.55
2018-09-06T12:12:25.707Z,18.00
2018-09-06T12:14:54.050Z,18.27
2018-09-06T12:17:22.476Z,17.52
2018-09-06T12:19:51.018Z,16.95
2018-09-06T12:22:19.283Z,17.55
2018-09-06T12:24:47.593Z,17.55
2018-09-06T12:27:15.844Z,17.32
2018-09-06T12:29:44.259Z,17.65
2018-09-06T12:32:12.647Z,17.02
2018-09-06T12:34:41.109Z,16.62
2018-09-06T12:37:13.067Z,16.87
2018-09-06T12:39:42.628Z,17.00
2018-09-06T12:42:11.559Z,16.60
2018-09-06T12:44:40.022Z,16.65
2018-09-06T12:47:08.377Z,17.27
2018-09-06T12:49:36.816Z,16.73
2018-09-06T12:52:05.094Z,17.00
2018-09-06T12:54:33.850Z,16.77
2018-09-06T12:57:02.153Z,17.12
2018-09-06T12:59:30.549Z,16.67
2018-09-06T13:02:00.074Z,17.95
2018-09-06T13:04:28.437Z,15.83
2018-09-06T13:06:56.938Z,16.67
2018-09-06T13:09:25.232Z,18.35
2018-09-06T13:11:54.000Z,17.05
2018-09-06T13:14:22.553Z,17.37
2018-09-06T13:16:51.001Z,17.37
2018-09-06T13:19:19.435Z,16.40
2018-09-06T13:21:47.708Z,17.95
2018-09-06T13:24:16.062Z,16.73
2018-09-06T13:26:44.356Z,17.98
2018-09-06T13:29:12.669Z,17.30
2018-09-06T13:31:41.057Z,16.75
2018-09-06T13:34:09.384Z,17.50
2018-09-06T13:36:37.699Z,16.45
2018-09-06T13:39:07.677Z,18.23
2018-09-06T13:41:42.328Z,16.37
2018-09-06T13:44:10.609Z,16.97
2018-09-06T13:46:39.520Z,16.45
2018-09-06T13:49:07.809Z,17.40
2018-09-06T13:51:36.109Z,17.10
2018-09-06T13:54:04.359Z,17.62
2018-09-06T13:56:32.760Z,16.75
2018-09-06T13:59:01.009Z,16.80
2018-09-06T14:01:29.380Z,18.37
2018-09-06T14:03:57.702Z,16.93
2018-09-06T14:06:26.069Z,17.02
2018-09-06T14:08:54.404Z,17.67
2018-09-06T14:11:22.756Z,16.80
2018-09-06T14:13:51.028Z,16.80
2018-09-06T14:16:19.336Z,16.12
2018-09-06T14:18:47.701Z,16.55
2018-09-06T14:21:16.844Z,16.32
2018-09-06T14:23:46.152Z,16.60
2018-09-06T14:26:35.374Z,16.85
2018-09-06T14:31:48.472Z,17.10
2018-09-06T14:34:16.767Z,15.35
2018-09-06T14:36:45.170Z,15.90
2018-09-06T14:39:13.492Z,16.20
2018-09-06T14:41:41.940Z,15.70
2018-09-06T14:44:10.467Z,16.40
2018-09-06T14:46:47.589Z,15.95
2018-09-06T14:49:15.967Z,16.17
2018-09-06T14:51:44.295Z,15.50
2018-09-06T14:54:12.568Z,14.53
2018-09-06T14:56:40.877Z,13.40
2018-09-06T14:59:09.266Z,14.43
2018-09-06T15:01:37.784Z,13.20
2018-09-06T15:04:06.188Z,14.60
2018-09-06T15:06:35.151Z,13.13
2018-09-06T15:09:05.408Z,12.70
2018-09-06T15:11:33.790Z,14.23
2018-09-06T15:14:02.600Z,14.58
2018-09-06T15:16:30.995Z,14.68
2018-09-06T15:19:01.700Z,14.10
2018-09-06T15:21:36.952Z,14.95
2018-09-06T15:24:05.476Z,14.38
2018-09-06T15:26:34.009Z,13.55
2018-09-06T15:29:05.162Z,14.75
2018-09-06T15:31:34.495Z,14.83
2018-09-06T15:34:02.962Z,15.60
2018-09-06T15:36:31.451Z,15.33
2018-09-06T15:39:00.033Z,15.28
2018-09-06T15:41:28.979Z,15.18
2018-09-06T15:43:57.466Z,14.95
2018-09-06T15:46:25.815Z,14.33
2018-09-06T15:48:57.133Z,15.75
2018-09-06T15:51:26.273Z,17.23
2018-09-06T15:53:54.957Z,19.55
2018-09-06T15:56:23.259Z,21.05
2018-09-06T15:58:51.759Z,19.40
2018-09-06T16:01:20.815Z,16.77
2018-09-06T16:03:50.457Z,17.77
2018-09-06T16:06:18.902Z,18.30
2018-09-06T16:08:47.296Z,17.40
2018-09-06T16:11:16.104Z,18.05
2018-09-06T16:13:44.562Z,18.47
2018-09-06T16:16:13.422Z,19.50
2018-09-06T16:18:42.023Z,18.90
2018-09-06T16:21:11.547Z,19.62
2018-09-06T16:23:40.018Z,20.37
2018-09-06T16:26:08.603Z,20.33
2018-09-06T16:28:36.934Z,19.93
2018-09-06T16:31:05.320Z,19.83
2018-09-06T16:33:34.280Z,18.90
2018-09-06T16:36:03.022Z,20.73
2018-09-06T16:38:31.909Z,20.30
2018-09-06T16:41:00.669Z,20.47
2018-09-06T16:43:29.235Z,19.80
2018-09-06T16:45:58.009Z,21.27
2018-09-06T16:48:26.504Z,21.63
2018-09-06T16:50:55.057Z,19.57
2018-09-06T16:53:24.464Z,20.40
2018-09-06T16:55:53.239Z,20.03
2018-09-06T16:58:21.761Z,20.73
2018-09-06T17:00:50.404Z,23.70
2018-09-06T17:03:18.823Z,20.40
2018-09-06T17:05:47.721Z,17.87
2018-09-06T17:08:16.112Z,18.52
2018-09-06T17:10:44.495Z,19.77
2018-09-06T17:13:12.950Z,19.50
2018-09-06T17:15:41.488Z,20.30
2018-09-06T17:18:09.887Z,19.42
2018-09-06T17:20:38.240Z,21.52
2018-09-06T17:23:07.064Z,20.82
2018-09-06T17:25:35.402Z,20.10
2018-09-06T17:28:04.351Z,17.75
2018-09-06T17:30:32.968Z,18.70
2018-09-06T17:33:01.449Z,17.30
2018-09-06T17:35:29.971Z,16.95
2018-09-06T17:37:58.432Z,17.75
2018-09-06T17:40:26.926Z,18.00
2018-09-06T17:42:55.762Z,19.27
2018-09-06T17:45:24.178Z,18.87
2018-09-06T17:47:52.909Z,18.25
2018-09-06T17:50:21.681Z,19.27
2018-09-06T17:52:50.135Z,20.63
2018-09-06T17:55:18.595Z,19.10
2018-09-06T17:57:46.953Z,19.50
2018-09-06T18:00:15.939Z,19.32
2018-09-06T18:02:44.389Z,20.90
2018-09-06T18:05:12.873Z,18.77
2018-09-06T18:07:41.254Z,20.15
2018-09-06T18:10:09.700Z,20.90
2018-09-06T18:12:38.251Z,20.33
2018-09-06T18:15:07.932Z,21.80
2018-09-06T18:17:36.402Z,21.00
2018-09-06T18:20:05.214Z,24.45
2018-09-06T18:22:33.687Z,23.50
2018-09-06T18:25:02.704Z,23.43
2018-09-06T18:27:31.635Z,24.18
2018-09-06T18:30:00.221Z,23.70
2018-09-06T18:32:28.707Z,24.33
2018-09-06T18:34:57.163Z,24.73
2018-09-06T18:37:25.733Z,25.20
2018-09-06T18:39:54.045Z,24.70
2018-09-06T18:42:23.681Z,26.23
2018-09-06T18:44:52.152Z,26.07
2018-09-06T18:47:20.746Z,25.93
2018-09-06T18:49:49.187Z,27.13
2018-09-06T18:52:17.702Z,27.77
2018-09-06T18:54:46.411Z,27.83
2018-09-06T18:57:14.795Z,27.20
2018-09-06T18:59:43.929Z,25.70
2018-09-06T19:02:12.686Z,27.60
2018-09-06T19:04:41.202Z,26.97
2018-09-06T19:07:09.908Z,27.60
2018-09-06T19:09:38.562Z,28.70
2018-09-06T19:12:07.567Z,26.97
2018-09-06T19:14:36.187Z,27.73
2018-09-06T19:17:04.796Z,27.67
2018-09-06T19:19:33.586Z,26.68
2018-09-06T19:22:02.634Z,26.87
2018-09-06T19:24:31.351Z,26.33
2018-09-06T19:27:00.197Z,28.23
2018-09-06T19:29:31.360Z,27.33
2018-09-06T19:32:00.034Z,27.40
2018-09-06T19:34:28.523Z,28.38
2018-09-06T19:36:57.264Z,29.87
2018-09-06T19:39:26.670Z,29.73
2018-09-06T19:41:55.027Z,29.50
2018-09-06T19:44:23.375Z,30.00
2018-09-06T19:46:52.552Z,29.30
2018-09-06T19:49:20.887Z,28.95
2018-09-06T19:51:50.177Z,29.12
2018-09-06T19:54:18.722Z,29.97
2018-09-06T19:56:47.223Z,30.93
2018-09-06T19:59:15.519Z,30.93
2018-09-06T20:01:44.019Z,30.63
2018-09-06T20:04:12.366Z,31.07
2018-09-06T20:06:42.094Z,32.90
2018-09-06T20:09:10.873Z,30.23
2018-09-06T20:11:40.104Z,31.23
2018-09-06T20:14:08.480Z,31.10
2018-09-06T20:16:36.817Z,29.80
2018-09-06T20:19:05.294Z,32.70
2018-09-06T20:21:33.653Z,36.03
2018-09-06T20:24:02.065Z,35.33
2018-09-06T20:26:32.063Z,34.47
2018-09-06T20:29:00.415Z,33.43
2018-09-06T20:31:28.790Z,34.10
2018-09-06T20:33:57.157Z,36.10
2018-09-06T20:36:25.667Z,36.07
2018-09-06T20:39:16.597Z,36.70
2018-09-06T20:41:45.088Z,37.23
2018-09-06T20:44:13.364Z,36.63
2018-09-06T20:46:41.703Z,39.17
2018-09-06T20:49:16.826Z,39.20
2018-09-06T20:51:45.239Z,41.07
2018-09-06T20:54:13.712Z,41.13
2018-09-06T20:56:42.171Z,39.87
2018-09-06T20:59:10.616Z,41.23
2018-09-06T21:01:39.130Z,43.67
2018-09-06T21:04:07.675Z,41.17
2018-09-06T21:06:36.036Z,40.47
2018-09-06T21:09:05.691Z,39.23
2018-09-06T21:11:34.152Z,39.18
2018-09-06T21:14:02.524Z,39.23
2018-09-06T21:16:31.149Z,37.77
2018-09-06T21:18:59.717Z,36.57
2018-09-06T21:21:28.240Z,37.63
2018-09-06T21:23:56.678Z,37.77
2018-09-06T21:26:25.365Z,35.70
2018-09-06T21:28:53.698Z,36.87
2018-09-06T21:31:22.098Z,39.43
2018-09-06T21:33:50.450Z,40.33
2018-09-06T21:36:18.894Z,40.77
2018-09-06T21:38:47.281Z,42.63
2018-09-06T21:41:15.676Z,40.80
2018-09-06T21:43:44.100Z,39.03
2018-09-06T21:46:12.431Z,39.77
2018-09-06T21:48:40.784Z,40.60
2018-09-06T21:51:09.184Z,39.73
2018-09-06T21:53:37.527Z,40.80
2018-09-06T21:56:05.857Z,40.67
2018-09-06T21:58:34.241Z,43.50
2018-09-06T22:01:02.647Z,41.87
2018-09-06T22:03:36.304Z,43.83
2018-09-06T22:06:04.709Z,43.07
2018-09-06T22:08:48.966Z,42.35
2018-09-06T22:11:17.396Z,42.50
2018-09-06T22:13:45.786Z,39.60
2018-09-06T22:16:14.217Z,40.30
2018-09-06T22:18:42.604Z,39.30
2018-09-06T22:21:11.001Z,39.67
2018-09-06T22:23:39.384Z,41.27
2018-09-06T22:26:07.825Z,40.67
2018-09-06T22:28:36.187Z,41.50
2018-09-06T22:31:04.948Z,42.93
2018-09-06T22:33:33.345Z,40.83
2018-09-06T22:36:01.678Z,43.03
2018-09-06T22:38:30.067Z,42.87
2018-09-06T22:40:58.415Z,41.37
2018-09-06T22:43:26.796Z,41.13
2018-09-06T22:45:55.202Z,41.00
2018-09-06T22:48:23.566Z,42.37
2018-09-06T22:50:51.935Z,43.37
2018-09-06T22:53:20.278Z,43.07
2018-09-06T22:55:48.688Z,43.00
2018-09-06T22:58:17.045Z,41.70
2018-09-06T23:00:45.474Z,40.20
2018-09-06T23:03:19.089Z,40.00
2018-09-06T23:05:47.541Z,40.13
2018-09-06T23:08:15.883Z,39.73
2018-09-06T23:10:44.212Z,38.47
2018-09-06T23:13:12.596Z,40.97
2018-09-06T23:15:40.961Z,42.17
2018-09-06T23:18:09.515Z,41.70
2018-09-06T23:20:37.890Z,41.23
2018-09-06T23:23:06.266Z,41.43
2018-09-06T23:25:34.653Z,38.23
2018-09-06T23:28:03.012Z,37.23
2018-09-06T23:30:31.493Z,35.87
2018-09-06T23:32:59.852Z,38.20
2018-09-06T23:35:28.169Z,40.03
2018-09-06T23:37:56.523Z,39.17
2018-09-06T23:40:24.860Z,40.33
2018-09-06T23:42:53.336Z,40.90
2018-09-06T23:45:21.743Z,38.93
2018-09-06T23:47:50.170Z,37.73
2018-09-06T23:50:18.555Z,39.73
2018-09-06T23:52:46.966Z,37.63
2018-09-06T23:55:15.336Z,39.10
2018-09-06T23:57:43.725Z,34.03
